Miguel Torga — CSKE — position and weather

sailwx.info

Track history (hours):
 
Tides and Currents Weather Stations Pressure Air Temp Water Temp Dewpoint Dewpoint Depression Visibility Wind Speed Wind Dir Waves Ship Positions

Miguel Torga

Last reported at 2017-Oct-16 19:04 UTC. Time now 2017-Oct-17 01:15 UTC.
Position N 38°39' W 009°05'.

Length 50 m.

Type: Ship. MMSI: 263701370.

Date/timePositionNaut miles runAvg speedWind from/ knotsBaromVisibWave heightAir tempDewpointWater temp
2017-Oct-16 19:04N 38°39' W 009°05'0 0.0
2017-Oct-16 18:59N 38°39' W 009°05'4 8.5
2017-Oct-16 18:30N 38°42' W 009°08'4 8.3
2017-Oct-16 18:00N 38°39' W 009°05'4 7.5
2017-Oct-16 17:31N 38°42' W 009°08'2 3.8
2017-Oct-16 17:00N 38°40' W 009°07'1 2.1
2017-Oct-16 16:30N 38°40' W 009°06'3 6.3
2017-Oct-16 16:00N 38°42' W 009°08'4 8.3
2017-Oct-16 15:30N 38°39' W 009°05'4 7.2
2017-Oct-16 15:00N 38°42' W 009°08'4 3.5
2017-Oct-16 14:00N 38°39' W 009°05'0 0.0
2017-Oct-16 10:22N 38°39' W 009°05'3 9.0
2017-Oct-16 10:00N 38°41' W 009°08'3 5.1
2017-Oct-16 09:30N 38°39' W 009°06'3 5.3
2017-Oct-16 09:00N 38°41' W 009°08'3 6.0
2017-Oct-16 08:30N 38°39' W 009°05'2 3.2
2017-Oct-16 08:01N 38°40' W 009°07'1 2.1
2017-Oct-16 07:30N 38°39' W 009°06'3 6.5
2017-Oct-16 06:59N 38°42' W 009°08'4 8.3
2017-Oct-16 06:29N 38°39' W 009°05'4 8.8
2017-Oct-16 06:00N 38°42' W 009°08'4 8.3
2017-Oct-16 05:30N 38°39' W 009°05'3 6.9
2017-Oct-16 05:01N 38°41' W 009°08'3 6.8
2017-Oct-16 04:30N 38°39' W 009°05'0 0.0
2017-Oct-15 21:04N 38°39' W 009°05'0 0.1
2017-Oct-15 21:00N 38°39' W 009°05'3 6.5
2017-Oct-15 20:30N 38°41' W 009°08'2 4.6
2017-Oct-15 20:01N 38°40' W 009°06'1 2.1
2017-Oct-15 19:30N 38°39' W 009°05'3 6.5
2017-Oct-15 19:00N 38°41' W 009°08'2 4.6
2017-Oct-15 18:31N 38°40' W 009°06'2 4.7
2017-Oct-15 18:00N 38°41' W 009°08'3 5.2
2017-Oct-15 17:30N 38°39' W 009°06'3 5.5
2017-Oct-15 17:00N 38°42' W 009°08'3 5.2
2017-Oct-15 16:31N 38°39' W 009°06'3 5.2
2017-Oct-15 16:00N 38°42' W 009°08'3 5.6
2017-Oct-15 15:30N 38°39' W 009°06'3 5.8
2017-Oct-15 15:01N 38°42' W 009°08'0 0.1
2017-Oct-15 14:01N 38°42' W 009°08'3 6.1
2017-Oct-15 13:31N 38°39' W 009°05'3 5.8
2017-Oct-15 13:01N 38°42' W 009°08'3 5.6
2017-Oct-15 12:31N 38°39' W 009°06'1 0.1
2017-Oct-15 06:44N 38°39' W 009°05'1 4.3
2017-Oct-15 06:30N 38°39' W 009°06'2 3.8
2017-Oct-15 06:01N 38°41' W 009°08'2 3.1
2017-Oct-15 05:31N 38°40' W 009°06'2 4.1
2017-Oct-15 05:00N 38°41' W 009°08'3 0.4
2017-Oct-14 21:18N 38°39' W 009°05'0 0.0
2017-Oct-14 20:53N 38°39' W 009°05'4 9.6
2017-Oct-14 20:30N 38°42' W 009°08'3 6.6
2017-Oct-14 20:00N 38°39' W 009°05'0 0.9
2017-Oct-14 19:30N 38°39' W 009°05'3 6.3
2017-Oct-14 19:00N 38°41' W 009°08'2 4.3
2017-Oct-14 18:30N 38°40' W 009°06'2 5.0
2017-Oct-14 18:01N 38°42' W 009°08'3 5.3
2017-Oct-14 17:30N 38°39' W 009°06'3 5.2
2017-Oct-14 17:00N 38°41' W 009°08'3 5.3
2017-Oct-14 16:30N 38°39' W 009°06'3 5.3
2017-Oct-14 16:00N 38°41' W 009°08'3 5.6
2017-Oct-14 15:31N 38°39' W 009°06'3 5.4
2017-Oct-14 15:01N 38°41' W 009°08'3 5.2
2017-Oct-14 14:30N 38°39' W 009°06'3 5.4
2017-Oct-14 14:01N 38°41' W 009°08'3 6.3
2017-Oct-14 13:31N 38°39' W 009°05'3 6.4
2017-Oct-14 13:00N 38°42' W 009°08'3 5.5
2017-Oct-14 12:31N 38°39' W 009°06'1 0.3
2017-Oct-14 09:48N 38°39' W 009°05'311.3
2017-Oct-14 09:30N 38°41' W 009°08'3 5.6
2017-Oct-14 09:01N 38°39' W 009°06'3 5.3
2017-Oct-14 08:31N 38°41' W 009°08'3 5.1
2017-Oct-14 08:00N 38°39' W 009°06'3 5.3
2017-Oct-14 07:30N 38°41' W 009°08'3 6.0
2017-Oct-14 07:00N 38°39' W 009°05'0 0.1
2017-Oct-14 06:31N 38°39' W 009°05'2 4.2
2017-Oct-14 06:01N 38°40' W 009°07'1 2.6
2017-Oct-14 05:30N 38°40' W 009°06'2 4.3
2017-Oct-14 05:00N 38°41' W 009°08'3 0.4
2017-Oct-13 20:55N 38°39' W 009°05'0 0.0
2017-Oct-13 20:31N 38°39' W 009°05'4 8.3
2017-Oct-13 20:01N 38°42' W 009°08'4 8.3
2017-Oct-13 19:31N 38°39' W 009°05'2 4.0
2017-Oct-13 19:01N 38°40' W 009°07'1 1.6
2017-Oct-13 18:31N 38°41' W 009°08'1 1.5
2017-Oct-13 18:01N 38°40' W 009°07'1 2.0
2017-Oct-13 17:30N 38°40' W 009°06'3 6.5
2017-Oct-13 17:00N 38°42' W 009°08'4 8.4
2017-Oct-13 16:30N 38°39' W 009°05'4 8.4
2017-Oct-13 16:00N 38°42' W 009°08'3 6.1
2017-Oct-13 15:30N 38°40' W 009°06'2 4.1
2017-Oct-13 15:00N 38°41' W 009°08'3 6.3
2017-Oct-13 14:30N 38°39' W 009°05'0 0.0
2017-Oct-13 12:25N 38°39' W 009°05'3 8.1
2017-Oct-13 12:00N 38°41' W 009°08'3 5.0
2017-Oct-13 11:30N 38°39' W 009°06'3 5.0
2017-Oct-13 11:01N 38°41' W 009°08'3 6.0
2017-Oct-13 10:31N 38°39' W 009°05'0 0.7
2017-Oct-13 10:00N 38°39' W 009°05'0 0.0
2017-Oct-13 09:30N 38°39' W 009°05'4 8.5
2017-Oct-13 09:01N 38°42' W 009°08'4 8.1
2017-Oct-13 08:30N 38°39' W 009°05'4 8.5
2017-Oct-13 08:00N 38°42' W 009°08'3 6.4
2017-Oct-13 07:28N 38°39' W 009°06'2 3.5
2017-Oct-13 07:01N 38°40' W 009°07'1 1.7
2017-Oct-13 06:31N 38°40' W 009°07'0 0.7
2017-Oct-13 06:01N 38°40' W 009°06'1 0.1
2017-Oct-12 20:18N 38°39' W 009°05'2 6.4
2017-Oct-12 20:00N 38°40' W 009°07'1 2.1
2017-Oct-12 19:31N 38°41' W 009°08'3 5.6
2017-Oct-12 19:00N 38°39' W 009°05'2 4.0
2017-Oct-12 18:31N 38°40' W 009°07'1 2.0
2017-Oct-12 18:01N 38°40' W 009°06'3 6.6
2017-Oct-12 17:30N 38°42' W 009°08'4 8.3
2017-Oct-12 17:00N 38°39' W 009°05'4 8.0
2017-Oct-12 16:31N 38°42' W 009°08'2 4.9
2017-Oct-12 16:01N 38°40' W 009°07'1 1.4
2017-Oct-12 15:31N 38°41' W 009°07'3 5.0
2017-Oct-12 15:00N 38°39' W 009°05'0 0.0
2017-Oct-12 14:30N 38°39' W 009°05'4 7.0
2017-Oct-12 14:00N 38°41' W 009°08'3 5.1
2017-Oct-12 13:30N 38°40' W 009°06'2 4.9
2017-Oct-12 13:01N 38°42' W 009°08'3 6.1
2017-Oct-12 12:31N 38°39' W 009°05'0 0.6
2017-Oct-12 11:53N 38°39' W 009°05'0 0.0
2017-Oct-12 11:30N 38°39' W 009°05'0 0.0
2017-Oct-12 10:59N 38°39' W 009°05'0 0.0
2017-Oct-12 10:30N 38°39' W 009°05'0 0.0
2017-Oct-12 10:00N 38°39' W 009°05'3 6.9
2017-Oct-12 09:30N 38°42' W 009°08'3 6.3
2017-Oct-12 09:00N 38°39' W 009°05'0 0.8
2017-Oct-12 08:30N 38°39' W 009°05'4 8.4
2017-Oct-12 08:00N 38°42' W 009°08'4 7.9
2017-Oct-12 07:30N 38°39' W 009°05'2 3.7
2017-Oct-12 07:00N 38°40' W 009°07'2 4.7
2017-Oct-12 06:31N 38°42' W 009°08'4 8.2
2017-Oct-12 06:00N 38°39' W 009°05'3 6.9
2017-Oct-12 05:30N 38°42' W 009°08'3 6.2
2017-Oct-12 05:00N 38°39' W 009°05'4 7.4
2017-Oct-12 04:31N 38°42' W 009°08'4 7.8
2017-Oct-12 04:00N 38°39' W 009°05'0 0.0
2017-Oct-12 01:20N 38°39' W 009°05'412.4
2017-Oct-12 01:00N 38°42' W 009°08'4 8.4
2017-Oct-12 00:30N 38°39' W 009°05'4 8.3
2017-Oct-12 00:00N 38°42' W 009°08'4 8.4
2017-Oct-11 23:31N 38°39' W 009°05'4 8.3
2017-Oct-11 23:00N 38°42' W 009°08'4 8.3
2017-Oct-11 22:31N 38°39' W 009°05'4 7.0
2017-Oct-11 22:01N 38°42' W 009°08'3 5.2
2017-Oct-11 21:31N 38°39' W 009°06'2 4.7
2017-Oct-11 21:01N 38°41' W 009°08'2 4.6
2017-Oct-11 20:30N 38°40' W 009°06'1 2.1
2017-Oct-11 20:00N 38°39' W 009°05'0 0.0
2017-Oct-11 19:31N 38°39' W 009°05'4 8.3
2017-Oct-11 19:00N 38°42' W 009°08'4 8.2
2017-Oct-11 18:30N 38°39' W 009°05'4 8.0
2017-Oct-11 18:00N 38°42' W 009°08'3 5.1
2017-Oct-11 17:31N 38°40' W 009°07'0 0.7
2017-Oct-11 17:00N 38°40' W 009°06'1 0.1
2017-Oct-10 20:21N 38°39' W 009°05'2 6.0
2017-Oct-10 20:01N 38°40' W 009°07'1 1.4
2017-Oct-10 19:31N 38°41' W 009°08'3 5.5
2017-Oct-10 19:00N 38°39' W 009°05'1 2.3
2017-Oct-10 18:30N 38°40' W 009°06'0 0.5
2017-Oct-10 18:00N 38°40' W 009°06'3 5.9
2017-Oct-10 17:31N 38°42' W 009°08'4 8.3
2017-Oct-10 17:00N 38°39' W 009°05'4 7.1
2017-Oct-10 16:30N 38°42' W 009°08'2 4.3
2017-Oct-10 16:01N 38°40' W 009°07'1 1.6
2017-Oct-10 15:31N 38°40' W 009°07'3 5.0
2017-Oct-10 15:00N 38°39' W 009°05'3 3.3
2017-Oct-10 14:00N 38°41' W 009°08'2 4.9
2017-Oct-10 13:31N 38°39' W 009°06'3 5.3
2017-Oct-10 13:00N 38°42' W 009°08'3 5.2
2017-Oct-10 12:30N 38°39' W 009°06'1 1.9
2017-Oct-10 12:01N 38°39' W 009°05'0 0.2
2017-Oct-10 11:30N 38°39' W 009°05'0 0.0
2017-Oct-10 11:00N 38°39' W 009°05'0 0.0
2017-Oct-10 10:30N 38°39' W 009°05'3 6.3
2017-Oct-10 10:00N 38°41' W 009°08'2 5.0
2017-Oct-10 09:31N 38°39' W 009°06'2 3.8
2017-Oct-10 09:00N 38°41' W 009°08'2 3.6
2017-Oct-10 08:31N 38°39' W 009°06'3 6.7
2017-Oct-10 08:00N 38°42' W 009°08'4 7.9
2017-Oct-10 07:30N 38°39' W 009°05'2 3.6
2017-Oct-10 07:01N 38°40' W 009°07'2 4.8
2017-Oct-10 06:30N 38°42' W 009°08'4 8.3
2017-Oct-10 06:00N 38°39' W 009°05'4 7.8
2017-Oct-10 05:31N 38°42' W 009°08'4 7.7
2017-Oct-10 05:00N 38°39' W 009°05'4 7.9
2017-Oct-10 04:31N 38°42' W 009°08'4 7.9
2017-Oct-10 04:01N 38°39' W 009°05'0 0.0
2017-Oct-10 01:20N 38°39' W 009°05'412.6
2017-Oct-10 01:00N 38°42' W 009°08'4 8.3
2017-Oct-10 00:30N 38°39' W 009°05'4 8.4
2017-Oct-10 00:00N 38°42' W 009°08'4 8.3
2017-Oct-09 23:30N 38°39' W 009°05'4 8.3
2017-Oct-09 23:00N 38°42' W 009°08'4 8.3
2017-Oct-09 22:30N 38°39' W 009°05'3 6.7
2017-Oct-09 22:00N 38°41' W 009°08'3 5.3
2017-Oct-09 21:31N 38°39' W 009°06'3 5.4
2017-Oct-09 21:01N 38°41' W 009°08'3 5.2
2017-Oct-09 20:30N 38°39' W 009°06'1 1.8
2017-Oct-09 20:01N 38°39' W 009°05'0 0.0
2017-Oct-09 19:30N 38°39' W 009°05'4 8.4
2017-Oct-09 19:00N 38°42' W 009°08'4 8.3
2017-Oct-09 18:30N 38°39' W 009°05'4 8.1
2017-Oct-09 18:00N 38°42' W 009°08'4 7.1
2017-Oct-09 17:30N 38°39' W 009°06'1 1.7
2017-Oct-09 17:01N 38°40' W 009°06'2 3.0
2017-Oct-09 16:31N 38°41' W 009°08'3 5.9
2017-Oct-09 16:01N 38°39' W 009°05'4 8.3
2017-Oct-09 15:31N 38°42' W 009°08'4 8.3
2017-Oct-09 15:00N 38°39' W 009°05'3 6.8
2017-Oct-09 14:30N 38°41' W 009°08'3 5.4
2017-Oct-09 14:01N 38°39' W 009°06'3 5.4
2017-Oct-09 13:30N 38°42' W 009°08'3 5.6
2017-Oct-09 13:00N 38°39' W 009°06'3 5.9
2017-Oct-09 12:30N 38°42' W 009°08'3 5.9
2017-Oct-09 12:01N 38°39' W 009°06'3 6.2
2017-Oct-09 11:30N 38°42' W 009°08'3 6.3
2017-Oct-09 11:01N 38°39' W 009°06'3 5.8
2017-Oct-09 10:30N 38°42' W 009°08'3 6.4
2017-Oct-09 10:00N 38°39' W 009°05'0 0.7
2017-Oct-09 09:30N 38°39' W 009°05'0 0.1
2017-Oct-09 09:01N 38°39' W 009°05'4 8.4
2017-Oct-09 08:30N 38°42' W 009°08'3 6.5
2017-Oct-09 08:00N 38°40' W 009°06'0 0.2
2017-Oct-09 07:30N 38°40' W 009°06'3 6.3
2017-Oct-09 07:01N 38°42' W 009°08'3 5.5
2017-Oct-09 06:31N 38°40' W 009°07'1 2.5
2017-Oct-09 06:00N 38°39' W 009°05'0 0.9
2017-Oct-09 05:30N 38°39' W 009°05'  
2017-Oct-06 20:11N 38°39' W 009°05'213.5
2017-Oct-06 20:01N 38°40' W 009°07'0 0.9
2017-Oct-06 19:31N 38°41' W 009°08'  
Track history (hours):
 
Tides and Currents Weather Stations Pressure Air Temp Water Temp Dewpoint Dewpoint Depression Visibility Wind Speed Wind Dir Waves Ship Positions

Miguel Torga

Last reported at 2017-Oct-16 19:04 UTC. Time now 2017-Oct-17 01:15 UTC.
Position N 38°39' W 009°05'.

Length 50 m.

Type: Ship. MMSI: 263701370.

Date/timePositionNaut miles runAvg speedWind from/ knotsBaromVisibWave heightAir tempDewpointWater temp
2017-Oct-16 19:04N 38°39' W 009°05'0 0.0
2017-Oct-16 18:59N 38°39' W 009°05'4 8.5
2017-Oct-16 18:30N 38°42' W 009°08'4 8.3
2017-Oct-16 18:00N 38°39' W 009°05'4 7.5
2017-Oct-16 17:31N 38°42' W 009°08'2 3.8
2017-Oct-16 17:00N 38°40' W 009°07'1 2.1
2017-Oct-16 16:30N 38°40' W 009°06'3 6.3
2017-Oct-16 16:00N 38°42' W 009°08'4 8.3
2017-Oct-16 15:30N 38°39' W 009°05'4 7.2
2017-Oct-16 15:00N 38°42' W 009°08'4 3.5
2017-Oct-16 14:00N 38°39' W 009°05'0 0.0
2017-Oct-16 10:22N 38°39' W 009°05'3 9.0
2017-Oct-16 10:00N 38°41' W 009°08'3 5.1
2017-Oct-16 09:30N 38°39' W 009°06'3 5.3
2017-Oct-16 09:00N 38°41' W 009°08'3 6.0
2017-Oct-16 08:30N 38°39' W 009°05'2 3.2
2017-Oct-16 08:01N 38°40' W 009°07'1 2.1
2017-Oct-16 07:30N 38°39' W 009°06'3 6.5
2017-Oct-16 06:59N 38°42' W 009°08'4 8.3
2017-Oct-16 06:29N 38°39' W 009°05'4 8.8
2017-Oct-16 06:00N 38°42' W 009°08'4 8.3
2017-Oct-16 05:30N 38°39' W 009°05'3 6.9
2017-Oct-16 05:01N 38°41' W 009°08'3 6.8
2017-Oct-16 04:30N 38°39' W 009°05'0 0.0
2017-Oct-15 21:04N 38°39' W 009°05'0 0.1
2017-Oct-15 21:00N 38°39' W 009°05'3 6.5
2017-Oct-15 20:30N 38°41' W 009°08'2 4.6
2017-Oct-15 20:01N 38°40' W 009°06'1 2.1
2017-Oct-15 19:30N 38°39' W 009°05'3 6.5
2017-Oct-15 19:00N 38°41' W 009°08'2 4.6
2017-Oct-15 18:31N 38°40' W 009°06'2 4.7
2017-Oct-15 18:00N 38°41' W 009°08'3 5.2
2017-Oct-15 17:30N 38°39' W 009°06'3 5.5
2017-Oct-15 17:00N 38°42' W 009°08'3 5.2
2017-Oct-15 16:31N 38°39' W 009°06'3 5.2
2017-Oct-15 16:00N 38°42' W 009°08'3 5.6
2017-Oct-15 15:30N 38°39' W 009°06'3 5.8
2017-Oct-15 15:01N 38°42' W 009°08'0 0.1
2017-Oct-15 14:01N 38°42' W 009°08'3 6.1
2017-Oct-15 13:31N 38°39' W 009°05'3 5.8
2017-Oct-15 13:01N 38°42' W 009°08'3 5.6
2017-Oct-15 12:31N 38°39' W 009°06'1 0.1
2017-Oct-15 06:44N 38°39' W 009°05'1 4.3
2017-Oct-15 06:30N 38°39' W 009°06'2 3.8
2017-Oct-15 06:01N 38°41' W 009°08'2 3.1
2017-Oct-15 05:31N 38°40' W 009°06'2 4.1
2017-Oct-15 05:00N 38°41' W 009°08'3 0.4
2017-Oct-14 21:18N 38°39' W 009°05'0 0.0
2017-Oct-14 20:53N 38°39' W 009°05'4 9.6
2017-Oct-14 20:30N 38°42' W 009°08'3 6.6
2017-Oct-14 20:00N 38°39' W 009°05'0 0.9
2017-Oct-14 19:30N 38°39' W 009°05'3 6.3
2017-Oct-14 19:00N 38°41' W 009°08'2 4.3
2017-Oct-14 18:30N 38°40' W 009°06'2 5.0
2017-Oct-14 18:01N 38°42' W 009°08'3 5.3
2017-Oct-14 17:30N 38°39' W 009°06'3 5.2
2017-Oct-14 17:00N 38°41' W 009°08'3 5.3
2017-Oct-14 16:30N 38°39' W 009°06'3 5.3
2017-Oct-14 16:00N 38°41' W 009°08'3 5.6
2017-Oct-14 15:31N 38°39' W 009°06'3 5.4
2017-Oct-14 15:01N 38°41' W 009°08'3 5.2
2017-Oct-14 14:30N 38°39' W 009°06'3 5.4
2017-Oct-14 14:01N 38°41' W 009°08'3 6.3
2017-Oct-14 13:31N 38°39' W 009°05'3 6.4
2017-Oct-14 13:00N 38°42' W 009°08'3 5.5
2017-Oct-14 12:31N 38°39' W 009°06'1 0.3
2017-Oct-14 09:48N 38°39' W 009°05'311.3
2017-Oct-14 09:30N 38°41' W 009°08'3 5.6
2017-Oct-14 09:01N 38°39' W 009°06'3 5.3
2017-Oct-14 08:31N 38°41' W 009°08'3 5.1
2017-Oct-14 08:00N 38°39' W 009°06'3 5.3
2017-Oct-14 07:30N 38°41' W 009°08'3 6.0
2017-Oct-14 07:00N 38°39' W 009°05'0 0.1
2017-Oct-14 06:31N 38°39' W 009°05'2 4.2
2017-Oct-14 06:01N 38°40' W 009°07'1 2.6
2017-Oct-14 05:30N 38°40' W 009°06'2 4.3
2017-Oct-14 05:00N 38°41' W 009°08'3 0.4
2017-Oct-13 20:55N 38°39' W 009°05'0 0.0
2017-Oct-13 20:31N 38°39' W 009°05'4 8.3
2017-Oct-13 20:01N 38°42' W 009°08'4 8.3
2017-Oct-13 19:31N 38°39' W 009°05'2 4.0
2017-Oct-13 19:01N 38°40' W 009°07'1 1.6
2017-Oct-13 18:31N 38°41' W 009°08'1 1.5
2017-Oct-13 18:01N 38°40' W 009°07'1 2.0
2017-Oct-13 17:30N 38°40' W 009°06'3 6.5
2017-Oct-13 17:00N 38°42' W 009°08'4 8.4
2017-Oct-13 16:30N 38°39' W 009°05'4 8.4
2017-Oct-13 16:00N 38°42' W 009°08'3 6.1
2017-Oct-13 15:30N 38°40' W 009°06'2 4.1
2017-Oct-13 15:00N 38°41' W 009°08'3 6.3
2017-Oct-13 14:30N 38°39' W 009°05'0 0.0
2017-Oct-13 12:25N 38°39' W 009°05'3 8.1
2017-Oct-13 12:00N 38°41' W 009°08'3 5.0
2017-Oct-13 11:30N 38°39' W 009°06'3 5.0
2017-Oct-13 11:01N 38°41' W 009°08'3 6.0
2017-Oct-13 10:31N 38°39' W 009°05'0 0.7
2017-Oct-13 10:00N 38°39' W 009°05'0 0.0
2017-Oct-13 09:30N 38°39' W 009°05'4 8.5
2017-Oct-13 09:01N 38°42' W 009°08'4 8.1
2017-Oct-13 08:30N 38°39' W 009°05'4 8.5
2017-Oct-13 08:00N 38°42' W 009°08'3 6.4
2017-Oct-13 07:28N 38°39' W 009°06'2 3.5
2017-Oct-13 07:01N 38°40' W 009°07'1 1.7
2017-Oct-13 06:31N 38°40' W 009°07'0 0.7
2017-Oct-13 06:01N 38°40' W 009°06'1 0.1
2017-Oct-12 20:18N 38°39' W 009°05'2 6.4
2017-Oct-12 20:00N 38°40' W 009°07'1 2.1
2017-Oct-12 19:31N 38°41' W 009°08'3 5.6
2017-Oct-12 19:00N 38°39' W 009°05'2 4.0
2017-Oct-12 18:31N 38°40' W 009°07'1 2.0
2017-Oct-12 18:01N 38°40' W 009°06'3 6.6
2017-Oct-12 17:30N 38°42' W 009°08'4 8.3
2017-Oct-12 17:00N 38°39' W 009°05'4 8.0
2017-Oct-12 16:31N 38°42' W 009°08'2 4.9
2017-Oct-12 16:01N 38°40' W 009°07'1 1.4
2017-Oct-12 15:31N 38°41' W 009°07'3 5.0
2017-Oct-12 15:00N 38°39' W 009°05'0 0.0
2017-Oct-12 14:30N 38°39' W 009°05'4 7.0
2017-Oct-12 14:00N 38°41' W 009°08'3 5.1
2017-Oct-12 13:30N 38°40' W 009°06'2 4.9
2017-Oct-12 13:01N 38°42' W 009°08'3 6.1
2017-Oct-12 12:31N 38°39' W 009°05'0 0.6
2017-Oct-12 11:53N 38°39' W 009°05'0 0.0
2017-Oct-12 11:30N 38°39' W 009°05'0 0.0
2017-Oct-12 10:59N 38°39' W 009°05'0 0.0
2017-Oct-12 10:30N 38°39' W 009°05'0 0.0
2017-Oct-12 10:00N 38°39' W 009°05'3 6.9
2017-Oct-12 09:30N 38°42' W 009°08'3 6.3
2017-Oct-12 09:00N 38°39' W 009°05'0 0.8
2017-Oct-12 08:30N 38°39' W 009°05'4 8.4
2017-Oct-12 08:00N 38°42' W 009°08'4 7.9
2017-Oct-12 07:30N 38°39' W 009°05'2 3.7
2017-Oct-12 07:00N 38°40' W 009°07'2 4.7
2017-Oct-12 06:31N 38°42' W 009°08'4 8.2
2017-Oct-12 06:00N 38°39' W 009°05'3 6.9
2017-Oct-12 05:30N 38°42' W 009°08'3 6.2
2017-Oct-12 05:00N 38°39' W 009°05'4 7.4
2017-Oct-12 04:31N 38°42' W 009°08'4 7.8
2017-Oct-12 04:00N 38°39' W 009°05'0 0.0
2017-Oct-12 01:20N 38°39' W 009°05'412.4
2017-Oct-12 01:00N 38°42' W 009°08'4 8.4
2017-Oct-12 00:30N 38°39' W 009°05'4 8.3
2017-Oct-12 00:00N 38°42' W 009°08'4 8.4
2017-Oct-11 23:31N 38°39' W 009°05'4 8.3
2017-Oct-11 23:00N 38°42' W 009°08'4 8.3
2017-Oct-11 22:31N 38°39' W 009°05'4 7.0
2017-Oct-11 22:01N 38°42' W 009°08'3 5.2
2017-Oct-11 21:31N 38°39' W 009°06'2 4.7
2017-Oct-11 21:01N 38°41' W 009°08'2 4.6
2017-Oct-11 20:30N 38°40' W 009°06'1 2.1
2017-Oct-11 20:00N 38°39' W 009°05'0 0.0
2017-Oct-11 19:31N 38°39' W 009°05'4 8.3
2017-Oct-11 19:00N 38°42' W 009°08'4 8.2
2017-Oct-11 18:30N 38°39' W 009°05'4 8.0
2017-Oct-11 18:00N 38°42' W 009°08'3 5.1
2017-Oct-11 17:31N 38°40' W 009°07'0 0.7
2017-Oct-11 17:00N 38°40' W 009°06'1 0.1
2017-Oct-10 20:21N 38°39' W 009°05'2 6.0
2017-Oct-10 20:01N 38°40' W 009°07'1 1.4
2017-Oct-10 19:31N 38°41' W 009°08'3 5.5
2017-Oct-10 19:00N 38°39' W 009°05'1 2.3
2017-Oct-10 18:30N 38°40' W 009°06'0 0.5
2017-Oct-10 18:00N 38°40' W 009°06'3 5.9
2017-Oct-10 17:31N 38°42' W 009°08'4 8.3
2017-Oct-10 17:00N 38°39' W 009°05'4 7.1
2017-Oct-10 16:30N 38°42' W 009°08'2 4.3
2017-Oct-10 16:01N 38°40' W 009°07'1 1.6
2017-Oct-10 15:31N 38°40' W 009°07'3 5.0
2017-Oct-10 15:00N 38°39' W 009°05'3 3.3
2017-Oct-10 14:00N 38°41' W 009°08'2 4.9
2017-Oct-10 13:31N 38°39' W 009°06'3 5.3
2017-Oct-10 13:00N 38°42' W 009°08'3 5.2
2017-Oct-10 12:30N 38°39' W 009°06'1 1.9
2017-Oct-10 12:01N 38°39' W 009°05'0 0.2
2017-Oct-10 11:30N 38°39' W 009°05'0 0.0
2017-Oct-10 11:00N 38°39' W 009°05'0 0.0
2017-Oct-10 10:30N 38°39' W 009°05'3 6.3
2017-Oct-10 10:00N 38°41' W 009°08'2 5.0
2017-Oct-10 09:31N 38°39' W 009°06'2 3.8
2017-Oct-10 09:00N 38°41' W 009°08'2 3.6
2017-Oct-10 08:31N 38°39' W 009°06'3 6.7
2017-Oct-10 08:00N 38°42' W 009°08'4 7.9
2017-Oct-10 07:30N 38°39' W 009°05'2 3.6
2017-Oct-10 07:01N 38°40' W 009°07'2 4.8
2017-Oct-10 06:30N 38°42' W 009°08'4 8.3
2017-Oct-10 06:00N 38°39' W 009°05'4 7.8
2017-Oct-10 05:31N 38°42' W 009°08'4 7.7
2017-Oct-10 05:00N 38°39' W 009°05'4 7.9
2017-Oct-10 04:31N 38°42' W 009°08'4 7.9
2017-Oct-10 04:01N 38°39' W 009°05'0 0.0
2017-Oct-10 01:20N 38°39' W 009°05'412.6
2017-Oct-10 01:00N 38°42' W 009°08'4 8.3
2017-Oct-10 00:30N 38°39' W 009°05'4 8.4
2017-Oct-10 00:00N 38°42' W 009°08'4 8.3
2017-Oct-09 23:30N 38°39' W 009°05'4 8.3
2017-Oct-09 23:00N 38°42' W 009°08'4 8.3
2017-Oct-09 22:30N 38°39' W 009°05'3 6.7
2017-Oct-09 22:00N 38°41' W 009°08'3 5.3
2017-Oct-09 21:31N 38°39' W 009°06'3 5.4
2017-Oct-09 21:01N 38°41' W 009°08'3 5.2
2017-Oct-09 20:30N 38°39' W 009°06'1 1.8
2017-Oct-09 20:01N 38°39' W 009°05'0 0.0
2017-Oct-09 19:30N 38°39' W 009°05'4 8.4
2017-Oct-09 19:00N 38°42' W 009°08'4 8.3
2017-Oct-09 18:30N 38°39' W 009°05'4 8.1
2017-Oct-09 18:00N 38°42' W 009°08'4 7.1
2017-Oct-09 17:30N 38°39' W 009°06'1 1.7
2017-Oct-09 17:01N 38°40' W 009°06'2 3.0
2017-Oct-09 16:31N 38°41' W 009°08'3 5.9
2017-Oct-09 16:01N 38°39' W 009°05'4 8.3
2017-Oct-09 15:31N 38°42' W 009°08'4 8.3
2017-Oct-09 15:00N 38°39' W 009°05'3 6.8
2017-Oct-09 14:30N 38°41' W 009°08'3 5.4
2017-Oct-09 14:01N 38°39' W 009°06'3 5.4
2017-Oct-09 13:30N 38°42' W 009°08'3 5.6
2017-Oct-09 13:00N 38°39' W 009°06'3 5.9
2017-Oct-09 12:30N 38°42' W 009°08'3 5.9
2017-Oct-09 12:01N 38°39' W 009°06'3 6.2
2017-Oct-09 11:30N 38°42' W 009°08'3 6.3
2017-Oct-09 11:01N 38°39' W 009°06'3 5.8
2017-Oct-09 10:30N 38°42' W 009°08'3 6.4
2017-Oct-09 10:00N 38°39' W 009°05'0 0.7
2017-Oct-09 09:30N 38°39' W 009°05'0 0.1
2017-Oct-09 09:01N 38°39' W 009°05'4 8.4
2017-Oct-09 08:30N 38°42' W 009°08'3 6.5
2017-Oct-09 08:00N 38°40' W 009°06'0 0.2
2017-Oct-09 07:30N 38°40' W 009°06'3 6.3
2017-Oct-09 07:01N 38°42' W 009°08'3 5.5
2017-Oct-09 06:31N 38°40' W 009°07'1 2.5
2017-Oct-09 06:00N 38°39' W 009°05'0 0.9
2017-Oct-09 05:30N 38°39' W 009°05'  
2017-Oct-06 20:11N 38°39' W 009°05'213.5
2017-Oct-06 20:01N 38°40' W 009°07'0 0.9
2017-Oct-06 19:31N 38°41' W 009°08'  

Dump ship's entire track history